Latest Weather Observations for Maatsuyker Island

IDT60801

Issued at 11:41 am EST Sunday 22 September 2019 (issued every 10 minutes, with the page automatically refreshed every 10 minutes)

About weather observations | Map of weather stations | Latest weather observations for TAS | Other Formats
Station Details ID: 094041 Name: MAATSUYKER ISLAND LIGHTHOUSE Lat: -43.66 Lon: 146.27 Height: 146.5 m
Data from the previous 72 hours. | See also: Recent months at Maatsuyker Island
Date/Time
EST
Temp
°C
App
Temp
°C
Dew
Point
°C
Rel
Hum
%
Delta-T
°C
Wind Press
QNH
hPa
Press
MSL
hPa
Rain since
9am
mm
Dir  Spd
km/h
Gust
km/h
Spd
kts
Gust
kts
22/11:30am 7.5 -4.7 2.6 71 2.1 NW 56 65 30 35 1014.7 - 0.4
22/11:07am 6.9 -6.4 2.0 71 2.0 WNW 61 80 33 43 1014.8 - 0.4
22/11:00am 6.6 -8.4 2.1 73 1.9 WNW 70 80 38 43 1014.7 - 0.4
22/10:59am 6.5 -9.2 2.0 73 1.8 WNW 74 80 40 43 1014.5 - 0.4
22/10:30am 7.2 -4.4 3.8 79 1.5 NW 54 65 29 35 1014.6 - 0.4
22/10:17am 6.7 -5.0 3.5 80 1.4 NW 54 72 29 39 1014.4 - 0.4
22/10:00am 7.7 -4.6 3.2 73 1.9 NW 57 70 31 38 1014.2 - 0.0
22/09:30am 7.4 -4.7 3.3 75 1.8 NW 56 65 30 35 1014.0 - 0.0
22/09:00am 7.5 -2.2 3.7 77 1.6 WNW 44 50 24 27 1014.3 1014.4 6.0
22/08:53am 7.2 -1.5 4.0 80 1.4 WNW 39 43 21 23 1014.5 - 6.0
22/08:47am 6.7 -0.7 4.0 83 1.2 NNW 32 41 17 22 1014.3 - 6.0
22/08:30am 7.1 -1.7 3.7 79 1.5 WNW 39 46 21 25 1014.2 - 6.0
22/08:26am 6.9 -2.0 3.3 78 1.5 WNW 39 43 21 23 1014.3 - 6.0
22/08:00am 6.3 -1.1 4.0 85 1.0 NW 32 41 17 22 1014.0 - 6.0
22/07:30am 6.5 -1.1 3.8 83 1.2 NW 33 41 18 22 1013.6 - 6.0
22/07:00am 6.0 -1.7 3.2 82 1.2 NW 33 39 18 21 1013.3 - 6.0
22/06:30am 5.5 -2.1 3.0 84 1.0 NW 32 39 17 21 1013.0 - 6.0
22/06:00am 5.0 -1.9 2.5 84 1.0 WSW 28 39 15 21 1012.8 1012.9 5.8
22/05:30am 6.5 -0.7 3.1 79 1.4 W 30 37 16 20 1011.9 - 5.8
22/05:00am 6.3 -1.3 2.8 78 1.5 W 32 39 17 21 1011.6 - 5.8
22/04:30am 6.3 -1.3 2.6 77 1.5 W 32 43 17 23 1011.2 - 5.8
22/04:00am 6.2 -1.4 3.0 80 1.3 W 32 43 17 23 1010.9 - 5.8
22/03:30am 6.1 -2.4 3.1 81 1.3 W 37 44 20 24 1010.7 - 5.8
22/03:00am 6.2 -1.9 3.4 82 1.2 W 35 46 19 25 1010.6 1010.7 5.8
22/02:30am 6.4 -2.4 3.4 81 1.3 W 39 50 21 27 1010.2 - 5.8
22/02:00am 6.5 -4.0 3.8 83 1.2 W 48 56 26 30 1009.9 - 5.8
22/01:30am 6.3 -3.4 4.1 86 0.9 W 44 56 24 30 1009.9 - 5.8
22/01:02am 6.3 -5.6 4.3 87 0.9 W 56 74 30 40 1009.6 - 5.8
22/01:00am 6.4 -6.0 4.4 87 0.9 W 59 74 32 40 1009.6 - 5.8
22/12:30am 6.6 -5.8 4.8 88 0.8 W 59 70 32 38 1009.0 - 5.8
22/12:00am 6.7 -7.7 5.3 91 0.6 WNW 70 85 38 46 1008.2 1008.3 5.8
 
Date/Time
EST
Temp
°C
App
Temp
°C
Dew
Point
°C
Rel
Hum
%
Delta-T
°C
Wind Press
QNH
hPa
Press
MSL
hPa
Rain since
9am
mm
Dir  Spd
km/h
Gust
km/h
Spd
kts
Gust
kts
21/11:30pm 6.9 -9.0 5.1 88 0.8 WNW 78 87 42 47 1007.1 - 5.6
21/11:19pm 6.7 -8.1 5.0 89 0.8 WNW 72 89 39 48 1007.0 - 5.6
21/11:00pm 6.9 -11.8 5.5 91 0.6 WNW 93 102 50 55 1005.8 - 5.4
21/10:30pm 6.8 -11.6 5.3 90 0.7 WNW 91 104 49 56 1005.5 - 5.0
21/10:00pm 7.1 -9.6 5.9 92 0.5 WNW 83 95 45 51 1004.8 - 4.8
21/09:35pm 6.9 -10.3 5.5 91 0.6 WNW 85 104 46 56 1004.2 - 4.4
21/09:30pm 6.9 -11.4 5.5 91 0.6 WNW 91 104 49 56 1003.9 - 4.4
21/09:17pm 6.8 -10.7 5.6 92 0.5 WNW 87 106 47 57 1003.1 - 4.4
21/09:00pm 6.7 -10.0 5.7 93 0.5 W 83 98 45 53 1002.9 1002.9 4.2
21/08:58pm 6.6 -10.2 5.6 93 0.4 W 83 98 45 53 1002.7 - 4.2
21/08:47pm 6.5 -14.8 5.5 93 0.4 WNW 107 128 58 69 1001.3 - 3.8
21/08:30pm 6.6 -17.6 5.6 93 0.4 WNW 122 152 66 82 999.2 - 3.4
21/08:29pm 6.6 -18.0 5.6 93 0.4 WNW 124 152 67 82 999.1 - 3.4
21/08:21pm 6.8 -19.3 5.6 92 0.5 WNW 132 152 71 82 996.7 - 3.2
21/08:18pm 7.4 -18.5 6.3 93 0.5 WNW 132 145 71 78 996.5 - 3.0
21/08:07pm 8.8 -13.3 7.3 90 0.7 WNW 113 133 61 72 994.7 - 2.4
21/08:05pm 9.3 -6.9 7.4 88 0.9 WNW 82 109 44 59 995.5 - 2.4
21/08:04pm 10.3 3.0 8.7 90 0.8 NW 37 95 20 51 995.8 - 2.2
21/08:03pm 11.0 4.3 9.6 91 0.7 NW 35 54 19 29 995.7 - 2.0
21/08:00pm 11.2 4.9 9.8 91 0.7 NW 33 44 18 24 995.8 - 2.0
21/07:30pm 11.7 6.5 10.3 91 0.7 NNW 28 43 15 23 995.7 - 2.0
21/07:02pm 11.9 6.9 11.0 94 0.5 NNW 28 46 15 25 995.7 - 1.8
21/07:00pm 11.8 7.2 11.0 95 0.4 NNW 26 43 14 23 995.8 - 1.8
21/06:30pm 10.8 7.1 10.0 95 0.4 NNW 20 30 11 16 996.1 - 1.8
21/06:00pm 11.0 8.6 10.1 94 0.5 NW 13 17 7 9 996.2 996.2 1.2
21/05:30pm 11.0 7.9 10.2 95 0.4 WNW 17 22 9 12 996.9 - 1.2
21/05:00pm 11.1 6.3 10.2 94 0.5 NW 26 30 14 16 997.3 - 1.2
21/04:30pm 11.1 7.6 10.2 94 0.5 WNW 19 24 10 13 997.4 - 1.2
21/04:00pm 10.8 6.2 9.7 93 0.6 NW 24 30 13 16 997.6 - 1.2
21/03:30pm 12.0 10.6 10.9 93 0.6 NNE 9 15 5 8 997.5 - 1.2
21/03:00pm 11.7 10.1 10.1 90 0.8 NE 9 20 5 11 997.8 997.9 0.0
21/02:30pm 13.6 12.6 12.3 92 0.7 SE 9 17 5 9 998.4 - 0.0
21/02:00pm 12.6 10.5 11.3 92 0.7 ESE 13 17 7 9 999.0 - 0.0
21/01:30pm 12.3 12.4 11.4 94 0.5 SW 2 6 1 3 1000.1 - 0.0
21/01:00pm 11.3 8.2 10.2 93 0.6 SE 17 20 9 11 1000.0 - 0.0
21/12:30pm 11.6 9.0 10.7 94 0.5 SSE 15 20 8 11 1000.7 - 0.0
21/12:00pm 11.4 9.1 10.5 94 0.5 SW 13 19 7 10 1001.8 1001.9 0.0
21/11:30am 11.6 9.4 10.7 94 0.5 SSE 13 17 7 9 1002.1 - 0.0
21/11:00am 11.3 7.3 10.4 94 0.5 WNW 22 30 12 16 1003.3 - 0.0
21/10:30am 11.3 9.7 10.2 93 0.6 NNW 9 13 5 7 1003.5 - 0.0
21/10:00am 11.6 10.5 10.5 93 0.6 NNW 7 11 4 6 1003.5 - 0.0
21/09:30am 11.4 9.1 10.3 93 0.6 NNW 13 15 7 8 1004.2 - 0.0
21/09:00am 11.6 8.9 10.5 93 0.6 NW 15 17 8 9 1004.9 1005.0 0.0
21/08:30am 11.1 8.3 10.0 93 0.6 ESE 15 20 8 11 1005.0 - 0.0
21/08:00am 11.1 8.3 10.0 93 0.6 ESE 15 20 8 11 1005.7 - 0.0
21/07:30am 11.0 9.7 9.8 92 0.6 NNE 7 15 4 8 1006.0 - 0.0
21/07:00am 11.0 9.3 9.8 92 0.6 N 9 17 5 9 1006.5 - 0.0
21/06:30am 10.9 8.8 9.7 92 0.6 N 11 17 6 9 1006.6 - 0.0
21/06:00am 10.9 9.2 9.7 92 0.6 N 9 15 5 8 1006.9 1007.0 0.0
21/05:30am 10.9 9.5 9.7 92 0.6 N 7 11 4 6 1007.4 - 0.0
21/05:00am 11.0 9.3 9.8 92 0.6 NNE 9 20 5 11 1008.3 - 0.0
21/04:30am 11.0 9.6 9.6 91 0.7 NNW 7 13 4 7 1008.6 - 0.0
21/04:00am 11.0 9.6 9.6 91 0.7 NW 7 13 4 7 1009.1 - 0.0
21/03:30am 11.1 9.4 9.7 91 0.7 NNW 9 15 5 8 1010.0 - 0.0
21/03:00am 11.2 9.4 9.6 90 0.8 N 9 17 5 9 1010.6 1010.7 0.0
21/02:30am 11.3 7.7 9.7 90 0.8 E 19 26 10 14 1010.9 - 0.0
21/02:00am 11.3 6.7 9.6 89 0.9 SE 24 26 13 14 1011.5 - 0.0
21/01:30am 11.4 8.1 9.5 88 1.0 SSW 17 20 9 11 1011.8 - 0.0
21/01:00am 11.7 9.2 9.6 87 1.1 WSW 13 19 7 10 1012.5 - 0.0
21/12:30am 11.9 8.2 9.6 86 1.2 W 19 24 10 13 1013.2 - 0.0
21/12:00am 12.6 8.9 9.4 81 1.6 NW 19 22 10 12 1013.4 1013.5 0.0
 
Date/Time
EST
Temp
°C
App
Temp
°C
Dew
Point
°C
Rel
Hum
%
Delta-T
°C
Wind Press
QNH
hPa
Press
MSL
hPa
Rain since
9am
mm
Dir  Spd
km/h
Gust
km/h
Spd
kts
Gust
kts
20/11:30pm 13.6 10.7 9.5 76 2.1 NW 15 20 8 11 1013.9 - 0.0
20/11:00pm 13.9 9.4 9.9 77 2.1 NNW 24 32 13 17 1013.9 - 0.0
20/10:30pm 13.5 7.5 10.1 80 1.8 NNW 32 43 17 23 1014.1 - 0.0
20/10:00pm 13.9 7.2 9.7 76 2.2 NW 35 43 19 23 1014.0 - 0.0
20/09:30pm 14.5 9.3 10.1 75 2.3 NW 28 35 15 19 1014.0 - 0.0
20/09:00pm 14.1 8.4 9.9 76 2.2 NNW 30 37 16 20 1014.2 1014.3 0.0
20/08:30pm 14.1 5.8 9.9 76 2.2 NNW 44 54 24 29 1013.5 - 0.0
20/08:00pm 14.2 6.0 9.6 74 2.4 NW 43 50 23 27 1013.4 - 0.0
20/07:30pm 14.4 8.2 9.4 72 2.6 NW 32 37 17 20 1013.7 - 0.0
20/07:00pm 14.8 10.2 9.8 72 2.6 NNW 24 30 13 16 1013.2 - 0.0
20/06:30pm 14.4 7.6 9.4 72 2.6 NW 35 43 19 23 1013.0 - 0.0
20/06:00pm 14.7 8.3 9.3 70 2.8 NNW 33 43 18 23 1012.7 1012.8 0.0
20/05:37pm 16.2 7.2 8.9 62 3.8 NW 46 57 25 31 1012.2 - 0.0
20/05:30pm 16.6 3.7 9.1 61 3.9 NW 67 74 36 40 1011.7 - 0.0
20/05:29pm 16.8 3.5 9.2 61 4.0 NW 69 74 37 40 1011.6 - 0.0
20/05:00pm 15.6 6.8 9.5 67 3.2 NNW 46 61 25 33 1011.9 - 0.0
20/04:30pm 15.9 7.5 9.1 64 3.5 NNW 43 52 23 28 1012.3 - 0.0
20/04:16pm 16.1 8.3 9.8 66 3.3 NNW 41 59 22 32 1012.4 - 0.0
20/04:00pm 15.4 6.3 10.0 70 2.8 NNW 48 57 26 31 1012.3 - 0.0
20/03:30pm 15.8 4.6 9.7 67 3.2 NW 59 70 32 38 1011.5 - 0.0
20/03:00pm 16.6 5.3 9.5 63 3.7 NW 59 74 32 40 1011.4 1011.5 0.0
20/02:37pm 17.6 6.6 9.0 57 4.5 NW 57 78 31 42 1011.2 - 0.0
20/02:30pm 18.1 8.1 9.2 56 4.7 NW 52 61 28 33 1011.2 - 0.0
20/02:27pm 17.8 11.4 9.2 57 4.5 NNW 33 54 18 29 1011.6 - 0.0
20/02:13pm 18.8 12.4 8.7 52 5.3 NW 32 46 17 25 1011.8 - 0.0
20/02:00pm 21.2 17.1 8.5 44 6.7 NNW 20 28 11 15 1012.0 - 0.0
20/01:30pm 21.1 18.0 9.0 46 6.5 N 15 20 8 11 1012.1 - 0.0
20/01:00pm 21.8 16.1 8.3 42 7.1 NNW 28 39 15 21 1012.0 - 0.0
20/12:30pm 21.9 16.1 8.1 41 7.3 NNW 28 37 15 20 1012.1 - 0.0
20/12:00pm 22.3 16.2 8.1 40 7.5 N 30 41 16 22 1012.2 1012.3 0.0
20/11:30am 21.9 15.3 7.7 40 7.4 N 32 46 17 25 1012.3 - 0.0
20/11:00am 21.6 14.3 7.4 40 7.4 N 35 48 19 26 1012.4 - 0.0
20/10:30am 21.2 14.3 7.4 41 7.2 N 33 46 18 25 1012.5 - 0.0
20/10:00am 21.4 15.1 7.3 40 7.3 N 30 44 16 24 1012.8 - 0.0
20/09:30am 21.2 15.3 7.4 41 7.2 N 28 39 15 21 1013.1 - 0.0
20/09:00am 20.7 14.8 7.3 42 6.9 N 28 41 15 22 1013.2 1013.3 0.0
20/08:30am 20.9 14.9 7.2 41 7.1 N 28 41 15 22 1013.3 - 0.0
20/08:00am 20.5 14.5 7.2 42 6.8 N 28 46 15 25 1013.4 - 0.0
20/07:30am 20.2 14.2 6.9 42 6.8 N 28 44 15 24 1013.3 - 0.0
20/07:00am 19.9 13.8 6.6 42 6.7 N 28 41 15 22 1013.5 - 0.0
20/06:30am 19.8 13.7 6.5 42 6.7 N 28 43 15 23 1013.2 - 0.0
20/06:00am 19.4 13.2 6.2 42 6.6 N 28 43 15 23 1013.1 1013.2 0.0
20/05:30am 19.0 12.3 5.8 42 6.5 N 30 43 16 23 1012.8 - 0.0
20/05:00am 19.1 11.9 5.2 40 6.8 N 32 44 17 24 1012.2 - 0.0
20/04:30am 18.8 11.6 4.9 40 6.8 N 32 41 17 22 1012.3 - 0.0
20/04:00am 18.9 11.9 4.3 38 7.0 N 30 39 16 21 1012.5 - 0.0
20/03:30am 19.1 11.9 2.9 34 7.6 N 30 39 16 21 1012.6 - 0.0
20/03:00am 18.9 12.3 1.9 32 7.8 N 26 39 14 21 1012.7 1012.8 0.0
20/02:30am 18.6 12.2 1.2 31 7.8 N 24 35 13 19 1013.0 - 0.0
20/02:00am 17.5 11.9 1.1 33 7.3 N 20 28 11 15 1013.3 - 0.0
20/01:30am 17.7 12.5 0.4 31 7.6 N 17 20 9 11 1013.5 - 0.0
20/01:00am 16.8 12.4 0.5 33 7.1 N 13 17 7 9 1013.8 - 0.0
20/12:30am 16.3 12.0 0.8 35 6.8 N 13 17 7 9 1013.9 - 0.0
20/12:00am 16.9 12.1 0.5 33 7.2 N 15 20 8 11 1013.8 1013.9 0.0
 
Date/Time
EST
Temp
°C
App
Temp
°C
Dew
Point
°C
Rel
Hum
%
Delta-T
°C
Wind Press
QNH
hPa
Press
MSL
hPa
Rain since
9am
mm
Dir  Spd
km/h
Gust
km/h
Spd
kts
Gust
kts
19/11:30pm 16.7 12.7 0.8 34 7.0 N 11 13 6 7 1013.7 - 0.0
19/11:00pm 17.2 11.5 0.4 32 7.4 N 20 26 11 14 1013.7 - 0.0
19/10:30pm 16.8 11.7 0.9 34 7.0 N 17 28 9 15 1013.5 - 0.0
19/10:00pm 16.8 12.2 1.7 36 6.8 N 15 22 8 12 1013.7 - 0.0
19/09:30pm 16.4 12.3 2.4 39 6.3 N 13 15 7 8 1013.8 - 0.0
19/09:00pm 16.6 12.7 3.3 41 6.2 N 13 15 7 8 1013.7 1013.8 0.0
19/08:30pm 17.0 12.7 3.0 39 6.5 N 15 19 8 10 1013.8 - 0.0
19/08:00pm 17.4 12.7 3.0 38 6.7 N 17 22 9 12 1013.7 - 0.0
19/07:30pm 17.6 12.3 2.8 37 6.8 N 20 28 11 15 1013.6 - 0.0
19/07:00pm 17.7 13.0 3.2 38 6.8 NNE 17 24 9 13 1013.4 - 0.0
19/06:30pm 18.2 13.8 2.9 36 7.1 ENE 15 20 8 11 1013.8 - 0.0
19/06:00pm 17.8 13.4 2.9 37 6.9 ENE 15 20 8 11 1014.2 1014.3 0.0
19/05:30pm 17.9 14.4 3.4 38 6.8 NNE 11 20 6 11 1014.5 - 0.0
19/05:00pm 17.8 14.6 2.9 37 6.9 NW 9 11 5 6 1014.8 - 0.0
19/04:30pm 17.0 13.3 2.2 37 6.7 N 11 24 6 13 1015.4 - 0.0
19/04:00pm 16.7 11.8 2.0 37 6.6 NE 17 28 9 15 1015.7 - 0.0
19/03:30pm 16.7 12.7 0.8 34 7.0 NNW 11 15 6 8 1016.0 - 0.0
19/03:00pm 16.1 12.4 2.2 39 6.3 NNW 11 17 6 9 1016.8 1016.9 0.0
19/02:30pm 13.7 7.9 4.3 53 4.3 E 24 37 13 20 1017.3 - 0.0
19/02:00pm 14.8 11.8 4.2 49 4.9 WNW 9 20 5 11 1017.6 - 0.0
19/01:30pm 16.0 12.0 -2.5 28 7.5 WNW 9 17 5 9 1018.0 - 0.0
19/01:00pm 15.2 10.5 -5.2 24 7.8 WNW 11 19 6 10 1018.5 - 0.0
19/12:30pm 15.0 10.3 -4.8 25 7.6 WNW 11 17 6 9 1019.1 - 0.0
19/12:00pm 14.0 7.8 -3.3 30 6.8 ENE 20 32 11 17 1019.7 1019.8 0.0

Other formats

Comma delimited format used in spreadsheet applications
http://www.bom.gov.au/fwo/IDT60801/IDT60801.94962.axf

JavaScript Object Notation format (JSON) in row-major order
http://www.bom.gov.au/fwo/IDT60801/IDT60801.94962.json

Data quality

Most of these data are generated automatically and are frequently updated. Quality checks on data are not normally performed. It is possible for incorrect values to appear. Refer to information at About Latest Weather Observations and please check the disclaimer before using these data.